createdAt,value
2023-03-29T05:01:09.592Z,25.00
2023-03-29T05:02:09.682Z,25.00
2023-03-29T05:03:09.636Z,25.00
2023-03-29T05:04:12.110Z,25.00
2023-03-29T05:05:09.669Z,25.00
2023-03-29T05:06:10.170Z,25.00
2023-03-29T05:07:09.673Z,0.00
2023-03-29T05:08:09.649Z,0.00
2023-03-29T05:09:09.602Z,0.00
2023-03-29T05:10:09.683Z,0.00
2023-03-29T05:11:09.666Z,0.00
2023-03-29T05:12:10.150Z,0.00
2023-03-29T05:13:09.979Z,0.00
2023-03-29T05:14:09.642Z,0.00
2023-03-29T05:15:09.673Z,0.00
2023-03-29T05:16:09.614Z,0.00
2023-03-29T05:17:09.570Z,0.00
2023-03-29T05:18:09.665Z,0.00
2023-03-29T05:19:09.575Z,0.00
2023-03-29T05:20:09.641Z,0.00
2023-03-29T05:21:09.578Z,0.00
2023-03-29T05:22:09.555Z,0.00
2023-03-29T05:23:09.535Z,0.00
2023-03-29T05:24:09.528Z,0.00
2023-03-29T05:25:09.585Z,0.00
2023-03-29T05:26:09.548Z,0.00
2023-03-29T05:27:09.519Z,0.00
2023-03-29T05:28:09.484Z,0.00
2023-03-29T05:29:09.601Z,0.00
2023-03-29T05:30:09.509Z,0.00
2023-03-29T05:31:09.481Z,0.00
2023-03-29T05:32:09.547Z,0.00
2023-03-29T05:33:09.567Z,0.00
2023-03-29T05:34:09.554Z,0.00
2023-03-29T05:35:09.662Z,1.02
2023-03-29T05:36:09.680Z,24.82
2023-03-29T05:37:09.779Z,29.72
2023-03-29T05:38:09.747Z,29.56
2023-03-29T05:39:09.795Z,27.47
2023-03-29T05:40:09.883Z,26.12
2023-03-29T05:41:09.884Z,25.00
2023-03-29T05:42:09.921Z,27.49
2023-03-29T05:43:10.030Z,30.75
2023-03-29T05:44:10.118Z,25.77
2023-03-29T05:45:10.115Z,25.00
2023-03-29T05:46:10.255Z,30.38
2023-03-29T05:47:10.216Z,31.68
2023-03-29T05:48:10.285Z,25.46
2023-03-29T05:49:10.262Z,30.34
2023-03-29T05:50:10.356Z,30.11
2023-03-29T05:51:10.449Z,32.04
2023-03-29T05:52:10.462Z,33.86
2023-03-29T05:53:10.512Z,27.59
2023-03-29T05:54:10.602Z,33.38
2023-03-29T05:55:10.734Z,29.14
2023-03-29T05:56:10.708Z,27.38
2023-03-29T05:57:10.745Z,31.30
2023-03-29T05:58:10.944Z,29.10
2023-03-29T05:59:11.623Z,27.78
2023-03-29T06:00:10.913Z,28.64
2023-03-29T06:01:11.097Z,32.46
2023-03-29T06:02:11.059Z,31.01
2023-03-29T06:03:17.949Z,31.30
2023-03-29T06:04:12.654Z,31.62
2023-03-29T06:05:11.054Z,32.01
2023-03-29T06:06:11.032Z,33.39
2023-03-29T06:07:11.087Z,32.70
2023-03-29T06:08:11.021Z,31.69
2023-03-29T06:09:11.028Z,37.22
2023-03-29T06:10:10.988Z,37.38
2023-03-29T06:11:11.263Z,34.34
2023-03-29T06:12:11.005Z,41.25
2023-03-29T06:13:10.999Z,44.11
2023-03-29T06:14:11.086Z,43.94
2023-03-29T06:15:11.113Z,48.54
2023-03-29T06:16:11.195Z,48.15
2023-03-29T06:17:11.204Z,49.20
2023-03-29T06:18:11.231Z,53.78
2023-03-29T06:19:11.166Z,53.37
2023-03-29T06:20:11.170Z,58.18
2023-03-29T06:21:11.206Z,52.50
2023-03-29T06:22:13.077Z,52.92
2023-03-29T06:23:11.590Z,57.47
2023-03-29T06:24:11.231Z,63.48
2023-03-29T06:25:11.294Z,55.67
2023-03-29T06:26:11.256Z,54.20
2023-03-29T06:27:11.240Z,62.10
2023-03-29T06:28:11.195Z,67.09
2023-03-29T06:29:11.164Z,64.02
2023-03-29T06:30:11.174Z,65.65
2023-03-29T06:31:11.173Z,67.70
2023-03-29T06:32:11.721Z,70.24
2023-03-29T06:33:11.222Z,67.11
2023-03-29T06:34:11.153Z,72.18
2023-03-29T06:35:11.143Z,74.29
2023-03-29T06:36:11.196Z,73.14
2023-03-29T06:37:11.154Z,73.64
2023-03-29T06:38:11.125Z,70.37
2023-03-29T06:39:11.128Z,77.57
2023-03-29T06:40:11.141Z,81.49
2023-03-29T06:41:11.174Z,77.24
2023-03-29T06:43:11.197Z,79.44
2023-03-29T06:44:11.099Z,81.78
2023-03-29T06:45:11.069Z,78.94
2023-03-29T06:46:11.128Z,79.66
2023-03-29T06:47:11.046Z,78.50
2023-03-29T06:48:11.046Z,81.53
2023-03-29T06:49:11.042Z,80.85
2023-03-29T06:50:11.019Z,78.70
2023-03-29T06:51:11.085Z,77.74
2023-03-29T06:52:11.044Z,76.64
2023-03-29T06:53:11.086Z,75.86
2023-03-29T06:54:11.659Z,77.42
2023-03-29T06:55:11.089Z,78.47
2023-03-29T06:56:11.139Z,79.24
2023-03-29T06:57:11.715Z,78.30
2023-03-29T06:58:11.031Z,78.70
2023-03-29T06:59:11.360Z,73.61
2023-03-29T07:00:10.985Z,77.80
2023-03-29T07:01:11.064Z,75.38
2023-03-29T07:02:11.051Z,89.31
2023-03-29T07:03:11.278Z,91.83
2023-03-29T07:04:11.106Z,81.74
2023-03-29T07:05:11.647Z,88.13
2023-03-29T07:06:11.141Z,87.10
2023-03-29T07:07:11.153Z,80.18
2023-03-29T07:08:11.315Z,82.41
2023-03-29T07:09:11.203Z,77.61
2023-03-29T07:10:11.210Z,77.38
2023-03-29T07:11:11.237Z,77.23
2023-03-29T07:12:11.232Z,74.68
2023-03-29T07:13:11.305Z,70.84
2023-03-29T07:14:11.197Z,70.35
2023-03-29T07:15:11.229Z,70.69
2023-03-29T07:16:11.254Z,72.02
2023-03-29T07:17:11.246Z,74.67
2023-03-29T07:18:11.290Z,69.88
2023-03-29T07:19:11.284Z,65.70
2023-03-29T07:20:11.250Z,62.70
2023-03-29T07:21:11.261Z,60.09
2023-03-29T07:22:11.389Z,64.59
2023-03-29T07:23:11.372Z,64.25
2023-03-29T07:24:11.362Z,68.06
2023-03-29T07:25:11.553Z,62.97
2023-03-29T07:26:11.334Z,54.98
2023-03-29T07:27:11.331Z,58.70
2023-03-29T07:28:11.679Z,60.71
2023-03-29T07:29:11.799Z,60.12
2023-03-29T07:30:11.470Z,53.38
2023-03-29T07:31:11.433Z,59.12
2023-03-29T07:32:11.449Z,52.65
2023-03-29T07:33:11.519Z,53.40
2023-03-29T07:34:11.410Z,53.52
2023-03-29T07:35:11.419Z,50.61
2023-03-29T07:36:11.617Z,53.99
2023-03-29T07:37:11.514Z,52.23
2023-03-29T07:38:11.679Z,51.42
2023-03-29T07:39:11.552Z,45.10
2023-03-29T07:40:11.636Z,46.18
2023-03-29T07:41:11.580Z,40.12
2023-03-29T07:42:11.599Z,36.81
2023-03-29T07:43:11.589Z,38.16
2023-03-29T07:44:11.626Z,37.43
2023-03-29T07:45:11.608Z,39.40
2023-03-29T07:46:11.734Z,40.99
2023-03-29T07:47:11.641Z,36.29
2023-03-29T07:48:11.738Z,60.14
2023-03-29T07:49:11.672Z,57.31
2023-03-29T07:50:11.669Z,68.86
2023-03-29T07:51:11.700Z,140.64
2023-03-29T07:52:11.765Z,176.30
2023-03-29T07:53:11.738Z,189.08
2023-03-29T07:54:11.719Z,201.03
2023-03-29T07:55:11.744Z,200.11
2023-03-29T07:56:11.750Z,199.68
2023-03-29T07:57:11.911Z,202.84
2023-03-29T07:58:11.838Z,203.99
2023-03-29T07:59:11.925Z,192.93
2023-03-29T08:00:11.881Z,194.75
2023-03-29T08:01:14.824Z,192.08
2023-03-29T08:02:12.038Z,196.44
2023-03-29T08:03:12.035Z,192.48
2023-03-29T08:04:12.044Z,194.22
2023-03-29T08:05:11.950Z,190.57
2023-03-29T08:06:11.942Z,189.30
2023-03-29T08:07:11.877Z,190.51
2023-03-29T08:08:11.877Z,183.62
2023-03-29T08:09:11.862Z,168.32
2023-03-29T08:10:11.889Z,166.36
2023-03-29T08:11:11.883Z,165.43
2023-03-29T08:12:11.833Z,160.45
2023-03-29T08:13:11.953Z,156.07
2023-03-29T08:14:11.832Z,155.14
2023-03-29T08:15:11.820Z,160.19
2023-03-29T08:16:11.840Z,160.98
2023-03-29T08:17:11.836Z,161.20
2023-03-29T08:18:11.821Z,159.55
2023-03-29T08:19:11.788Z,160.06
2023-03-29T08:20:11.797Z,154.18
2023-03-29T08:21:11.755Z,154.31
2023-03-29T08:22:11.784Z,154.57
2023-03-29T08:23:11.818Z,151.63
2023-03-29T08:24:11.782Z,140.14
2023-03-29T08:25:11.772Z,152.65
2023-03-29T08:26:11.760Z,138.62
2023-03-29T08:27:11.727Z,115.91
2023-03-29T08:28:11.722Z,112.32
2023-03-29T08:29:11.731Z,118.70
2023-03-29T08:30:11.756Z,124.29
2023-03-29T08:31:11.726Z,134.18
2023-03-29T08:32:11.736Z,127.53
2023-03-29T08:33:11.731Z,123.02
2023-03-29T08:34:12.212Z,113.43
2023-03-29T08:35:11.667Z,115.07
2023-03-29T08:36:12.404Z,139.62
2023-03-29T08:37:11.735Z,129.28
2023-03-29T08:38:11.633Z,134.21
2023-03-29T08:39:11.718Z,144.56
2023-03-29T08:40:11.687Z,140.68
2023-03-29T08:41:11.702Z,129.99
2023-03-29T08:42:11.611Z,111.85
2023-03-29T08:43:11.673Z,114.61
2023-03-29T08:44:11.707Z,105.09
2023-03-29T08:45:11.603Z,105.70
2023-03-29T08:46:12.849Z,111.30
2023-03-29T08:47:11.604Z,124.96
2023-03-29T08:48:11.629Z,115.04
2023-03-29T08:49:11.552Z,115.99
2023-03-29T08:50:11.539Z,105.73
2023-03-29T08:51:11.826Z,113.37
2023-03-29T08:52:11.591Z,110.72
2023-03-29T08:53:11.805Z,105.28
2023-03-29T08:54:11.982Z,103.80
2023-03-29T08:55:12.607Z,105.06
2023-03-29T08:56:11.673Z,101.70
2023-03-29T08:57:11.558Z,100.73
2023-03-29T08:58:11.566Z,106.85
2023-03-29T08:59:11.582Z,106.70
2023-03-29T09:00:11.509Z,109.83
2023-03-29T09:01:11.623Z,112.63
2023-03-29T09:02:11.509Z,113.35
2023-03-29T09:03:11.683Z,116.80
2023-03-29T09:04:11.513Z,114.40
2023-03-29T09:05:11.487Z,114.90
2023-03-29T09:06:11.508Z,118.56
2023-03-29T09:07:11.496Z,118.64
2023-03-29T09:08:11.495Z,120.17
2023-03-29T09:09:11.548Z,121.02
2023-03-29T09:10:11.523Z,122.06
2023-03-29T09:11:11.973Z,121.68
2023-03-29T09:12:11.911Z,120.40
2023-03-29T09:13:11.719Z,126.26
2023-03-29T09:14:13.077Z,123.97
2023-03-29T09:15:11.897Z,126.04
2023-03-29T09:16:11.902Z,93.97
2023-03-29T09:17:13.705Z,107.88
2023-03-29T09:18:12.009Z,115.50
2023-03-29T09:19:11.940Z,115.68
2023-03-29T09:20:11.970Z,117.11
2023-03-29T09:21:12.046Z,116.04
2023-03-29T09:22:12.114Z,115.29
2023-03-29T09:23:12.164Z,113.26
2023-03-29T09:24:12.176Z,114.97
2023-03-29T09:25:13.659Z,113.12
2023-03-29T09:26:13.736Z,112.06
2023-03-29T09:27:12.375Z,115.40
2023-03-29T09:28:12.417Z,120.46
2023-03-29T09:29:12.466Z,117.55
2023-03-29T09:30:12.486Z,117.28
2023-03-29T09:31:12.642Z,117.38
2023-03-29T09:32:12.615Z,116.95
2023-03-29T09:33:13.826Z,120.33
2023-03-29T09:34:14.373Z,119.94
2023-03-29T09:35:12.840Z,121.82
2023-03-29T09:36:13.408Z,122.72
2023-03-29T09:37:12.876Z,123.69
2023-03-29T09:38:12.654Z,121.40
2023-03-29T09:39:12.687Z,124.63
2023-03-29T09:40:12.663Z,125.08
2023-03-29T09:41:12.683Z,124.43
2023-03-29T09:42:12.661Z,126.10
2023-03-29T09:43:12.650Z,127.25
2023-03-29T09:44:23.895Z,134.19
2023-03-29T09:45:13.635Z,134.23
2023-03-29T09:46:12.640Z,133.59
2023-03-29T09:47:12.629Z,135.86
2023-03-29T09:48:12.655Z,134.24
2023-03-29T09:49:12.620Z,134.09
2023-03-29T09:50:23.532Z,135.97
2023-03-29T09:51:13.592Z,136.22
2023-03-29T09:52:12.590Z,137.18
2023-03-29T09:53:12.559Z,138.92
2023-03-29T09:54:12.551Z,140.60
2023-03-29T09:55:12.536Z,145.73
2023-03-29T09:56:12.532Z,144.13
2023-03-29T09:57:12.617Z,146.14
2023-03-29T09:58:12.701Z,145.01
2023-03-29T09:59:12.558Z,148.69
2023-03-29T10:00:12.495Z,152.01
2023-03-29T10:01:12.526Z,151.69
2023-03-29T10:02:12.536Z,152.29
2023-03-29T10:03:12.731Z,156.04
2023-03-29T10:04:12.595Z,156.25
2023-03-29T10:05:15.282Z,154.62
2023-03-29T10:06:12.869Z,160.83
2023-03-29T10:07:12.636Z,160.47
2023-03-29T10:08:12.606Z,162.64
2023-03-29T10:09:12.603Z,163.17
2023-03-29T10:10:12.568Z,164.27
2023-03-29T10:11:12.562Z,160.33
2023-03-29T10:12:12.576Z,165.31
2023-03-29T10:13:12.682Z,166.94
2023-03-29T10:14:12.622Z,161.75
2023-03-29T10:15:26.628Z,165.51
2023-03-29T10:16:13.663Z,165.94
2023-03-29T10:17:12.588Z,166.17
2023-03-29T10:18:12.522Z,166.27
2023-03-29T10:19:12.557Z,168.07
2023-03-29T10:20:12.538Z,168.87
2023-03-29T10:21:12.513Z,171.04
2023-03-29T10:22:12.520Z,168.59
2023-03-29T10:23:12.500Z,168.07
2023-03-29T10:24:12.481Z,165.39
2023-03-29T10:25:12.542Z,167.20
2023-03-29T10:26:12.482Z,165.33
2023-03-29T10:27:12.487Z,163.83
2023-03-29T10:28:12.457Z,161.27
2023-03-29T10:29:12.517Z,160.01
2023-03-29T10:30:12.550Z,158.67
2023-03-29T10:31:12.469Z,158.30
2023-03-29T10:32:12.448Z,157.50
2023-03-29T10:33:12.540Z,152.21
2023-03-29T10:34:12.559Z,153.35
2023-03-29T10:35:12.540Z,153.06
2023-03-29T10:36:12.690Z,150.01
2023-03-29T10:37:12.711Z,148.88
2023-03-29T10:38:12.673Z,149.14
2023-03-29T10:39:12.683Z,149.98
2023-03-29T10:40:12.749Z,147.16
2023-03-29T10:41:12.826Z,144.83
2023-03-29T10:42:12.823Z,146.29
2023-03-29T10:43:12.856Z,144.01
2023-03-29T10:44:12.890Z,156.97
2023-03-29T10:45:12.925Z,172.17
2023-03-29T10:46:13.196Z,181.75
2023-03-29T10:47:13.060Z,180.06
2023-03-29T10:48:13.103Z,171.19
2023-03-29T10:49:13.108Z,166.39
2023-03-29T10:50:13.287Z,173.14
2023-03-29T10:51:14.227Z,176.67
2023-03-29T10:52:13.255Z,179.16
2023-03-29T10:53:13.289Z,172.90
2023-03-29T10:54:13.349Z,168.26
2023-03-29T10:55:13.416Z,163.78
2023-03-29T10:56:13.428Z,156.29
2023-03-29T10:57:13.574Z,155.60
2023-03-29T10:58:13.544Z,148.92
2023-03-29T10:59:13.572Z,150.30
2023-03-29T11:00:13.678Z,154.21
2023-03-29T11:01:13.675Z,147.81
2023-03-29T11:02:13.901Z,148.32
2023-03-29T11:03:16.521Z,147.18
2023-03-29T11:04:13.791Z,147.00
2023-03-29T11:05:13.796Z,141.95
2023-03-29T11:06:13.723Z,137.06
2023-03-29T11:07:13.719Z,134.07
2023-03-29T11:08:13.752Z,110.92
2023-03-29T11:09:13.751Z,76.56
2023-03-29T11:10:13.829Z,68.42
2023-03-29T11:11:13.806Z,83.76
2023-03-29T11:12:16.224Z,91.89
2023-03-29T11:13:13.823Z,92.04
2023-03-29T11:14:13.727Z,91.61
2023-03-29T11:15:13.682Z,90.20
2023-03-29T11:16:13.691Z,80.61
2023-03-29T11:17:13.688Z,83.68
2023-03-29T11:18:13.689Z,89.08
2023-03-29T11:19:13.701Z,86.07
2023-03-29T11:20:13.627Z,88.09
2023-03-29T11:21:13.648Z,89.02
2023-03-29T11:22:13.635Z,86.81
2023-03-29T11:23:13.613Z,84.27
2023-03-29T11:24:13.589Z,83.16
2023-03-29T11:25:13.623Z,79.63
2023-03-29T11:26:13.610Z,76.65
2023-03-29T11:27:13.605Z,79.84
2023-03-29T11:28:13.619Z,78.79
2023-03-29T11:29:13.575Z,76.97
2023-03-29T11:30:13.563Z,77.60
2023-03-29T11:31:13.634Z,76.68
2023-03-29T11:32:13.516Z,70.61
2023-03-29T11:33:13.521Z,73.33
2023-03-29T11:34:13.542Z,70.93
2023-03-29T11:35:13.552Z,69.20
2023-03-29T11:36:13.578Z,66.50
2023-03-29T11:37:13.509Z,69.73
2023-03-29T11:38:13.552Z,71.43
2023-03-29T11:39:13.511Z,73.81
2023-03-29T11:40:13.567Z,72.25
2023-03-29T11:41:13.507Z,74.63
2023-03-29T11:42:13.514Z,71.24
2023-03-29T11:43:13.479Z,73.27
2023-03-29T11:44:13.476Z,73.67
2023-03-29T11:45:13.479Z,73.07
2023-03-29T11:46:13.472Z,70.96
2023-03-29T11:47:13.456Z,72.90
2023-03-29T11:48:13.438Z,72.43
2023-03-29T11:49:13.398Z,73.74
2023-03-29T11:50:13.508Z,74.55
2023-03-29T11:51:13.438Z,75.04
2023-03-29T11:52:13.403Z,72.99
2023-03-29T11:53:13.404Z,72.42
2023-03-29T11:54:13.386Z,71.59
2023-03-29T11:55:13.393Z,74.99
2023-03-29T11:56:13.472Z,75.43
2023-03-29T11:57:13.609Z,74.04
2023-03-29T11:58:13.475Z,73.32
2023-03-29T11:59:13.561Z,74.52
2023-03-29T12:00:13.627Z,74.70
2023-03-29T12:01:13.696Z,75.10
2023-03-29T12:02:13.749Z,74.98
2023-03-29T12:03:13.872Z,70.85
2023-03-29T12:04:13.937Z,75.45
2023-03-29T12:05:13.899Z,72.88
2023-03-29T12:06:14.793Z,72.56
2023-03-29T12:07:14.496Z,69.04
2023-03-29T12:08:14.037Z,68.99
2023-03-29T12:09:16.660Z,63.88
2023-03-29T12:10:14.097Z,64.06
2023-03-29T12:11:14.092Z,64.11
2023-03-29T12:12:14.171Z,62.80
2023-03-29T12:13:14.102Z,59.32
2023-03-29T12:14:14.074Z,52.55
2023-03-29T12:15:14.070Z,45.48
2023-03-29T12:16:14.070Z,51.95
2023-03-29T12:17:14.048Z,49.39
2023-03-29T12:18:14.027Z,46.96
2023-03-29T12:19:14.074Z,32.76
2023-03-29T12:20:14.076Z,41.47
2023-03-29T12:21:14.121Z,32.33
2023-03-29T12:22:14.138Z,29.54
2023-03-29T12:23:14.498Z,32.39
2023-03-29T12:24:15.160Z,26.74
2023-03-29T12:25:14.719Z,25.00
2023-03-29T12:26:14.337Z,25.00
2023-03-29T12:27:14.338Z,19.62
2023-03-29T12:28:14.487Z,32.91
2023-03-29T12:29:14.352Z,24.88
2023-03-29T12:30:14.412Z,33.96
2023-03-29T12:31:14.418Z,36.96
2023-03-29T12:32:14.446Z,44.24
2023-03-29T12:33:15.890Z,48.54
2023-03-29T12:34:14.430Z,52.49
2023-03-29T12:35:14.445Z,45.66
2023-03-29T12:36:14.666Z,51.22
2023-03-29T12:37:14.438Z,38.28
2023-03-29T12:38:14.481Z,46.63
2023-03-29T12:39:14.524Z,30.99
2023-03-29T12:40:14.483Z,38.19
2023-03-29T12:41:14.513Z,32.26
2023-03-29T12:42:14.561Z,40.40
2023-03-29T12:43:14.548Z,34.16
2023-03-29T12:44:14.567Z,31.37
2023-03-29T12:45:14.561Z,25.66
2023-03-29T12:46:14.733Z,39.20
2023-03-29T12:47:14.697Z,38.28
2023-03-29T12:48:14.860Z,32.40
2023-03-29T12:49:14.906Z,36.33
2023-03-29T12:50:14.714Z,22.45
2023-03-29T12:51:14.734Z,25.80
2023-03-29T12:52:14.746Z,41.45
2023-03-29T12:53:14.797Z,30.95
2023-03-29T12:54:14.854Z,49.34
2023-03-29T12:55:14.844Z,42.52
2023-03-29T12:56:14.892Z,38.74
2023-03-29T12:57:14.946Z,46.35
2023-03-29T12:58:14.992Z,44.70
2023-03-29T12:59:14.993Z,48.49
2023-03-29T13:00:15.071Z,31.13
2023-03-29T13:01:15.120Z,33.12
2023-03-29T13:02:15.355Z,31.89
2023-03-29T13:03:15.160Z,46.16
2023-03-29T13:04:15.216Z,37.74
2023-03-29T13:05:15.288Z,35.87
2023-03-29T13:06:15.347Z,35.15
2023-03-29T13:07:15.306Z,45.93
2023-03-29T13:08:15.350Z,39.69
2023-03-29T13:09:15.434Z,45.56
2023-03-29T13:10:15.502Z,53.53
2023-03-29T13:11:15.645Z,50.07
2023-03-29T13:12:15.506Z,47.06
2023-03-29T13:13:15.538Z,38.69
2023-03-29T13:14:15.577Z,52.11
2023-03-29T13:15:15.605Z,42.42
2023-03-29T13:16:15.666Z,55.35
2023-03-29T13:17:19.004Z,52.54
2023-03-29T13:18:15.671Z,25.00
2023-03-29T13:19:15.603Z,37.84
2023-03-29T13:20:15.597Z,47.57
2023-03-29T13:21:15.676Z,41.75
2023-03-29T13:22:15.625Z,35.28
2023-03-29T13:23:17.453Z,32.60
2023-03-29T13:24:15.648Z,33.93
2023-03-29T13:25:16.107Z,32.01
2023-03-29T13:26:15.564Z,33.25
2023-03-29T13:27:15.594Z,31.00
2023-03-29T13:28:15.607Z,32.05
2023-03-29T13:29:15.642Z,31.60
2023-03-29T13:30:15.728Z,34.78
2023-03-29T13:31:15.909Z,34.15
2023-03-29T13:32:15.839Z,27.88
2023-03-29T13:33:15.894Z,27.99
2023-03-29T13:34:15.997Z,25.12
2023-03-29T13:35:15.971Z,25.08
2023-03-29T13:36:15.980Z,25.68
2023-03-29T13:37:16.048Z,25.00
2023-03-29T13:38:16.080Z,26.41
2023-03-29T13:39:16.060Z,20.02
2023-03-29T13:40:16.007Z,34.94
2023-03-29T13:41:16.136Z,40.25
2023-03-29T13:42:16.030Z,38.63
2023-03-29T13:43:16.117Z,30.35
2023-03-29T13:44:16.110Z,25.60
2023-03-29T13:45:16.729Z,27.48
2023-03-29T13:46:16.215Z,36.86
2023-03-29T13:47:16.208Z,45.00
2023-03-29T13:48:16.302Z,48.69
2023-03-29T13:49:16.618Z,42.78
2023-03-29T13:50:16.291Z,39.99
2023-03-29T13:51:16.810Z,45.89
2023-03-29T13:52:16.645Z,32.67
2023-03-29T13:53:16.487Z,41.86
2023-03-29T13:54:16.482Z,44.31
2023-03-29T13:55:16.525Z,34.22
2023-03-29T13:56:16.525Z,23.88
2023-03-29T13:57:16.629Z,43.60
2023-03-29T13:58:16.541Z,56.51
2023-03-29T13:59:16.602Z,74.99
2023-03-29T14:00:16.619Z,67.12
2023-03-29T14:01:16.726Z,87.39
2023-03-29T14:02:16.782Z,95.61
2023-03-29T14:03:16.715Z,89.58
2023-03-29T14:04:16.703Z,93.82
2023-03-29T14:05:16.755Z,108.53
2023-03-29T14:06:16.740Z,91.56
2023-03-29T14:07:16.780Z,104.48
2023-03-29T14:08:16.772Z,119.50
2023-03-29T14:09:16.786Z,120.89
2023-03-29T14:10:16.803Z,122.44
2023-03-29T14:11:16.804Z,122.07
2023-03-29T14:12:16.860Z,127.42
2023-03-29T14:13:16.877Z,129.16
2023-03-29T14:14:16.867Z,141.36
2023-03-29T14:15:16.948Z,146.45
2023-03-29T14:16:17.117Z,146.18
2023-03-29T14:17:17.138Z,160.52
2023-03-29T14:18:17.148Z,183.99
2023-03-29T14:19:17.191Z,164.33
2023-03-29T14:20:17.199Z,202.83
2023-03-29T14:21:17.236Z,208.57
2023-03-29T14:22:17.291Z,250.13
2023-03-29T14:23:17.332Z,249.62
2023-03-29T14:24:17.416Z,241.28
2023-03-29T14:25:17.448Z,259.81
2023-03-29T14:26:17.669Z,243.81
2023-03-29T14:27:17.723Z,249.20
2023-03-29T14:28:17.589Z,238.51
2023-03-29T14:29:17.589Z,242.96
2023-03-29T14:30:17.638Z,245.75
2023-03-29T14:31:17.802Z,248.68
2023-03-29T14:32:17.781Z,249.92
2023-03-29T14:33:17.736Z,249.35
2023-03-29T14:34:17.757Z,246.97
2023-03-29T14:35:17.773Z,250.00
2023-03-29T14:36:17.973Z,245.15
2023-03-29T14:37:17.899Z,239.14
2023-03-29T14:38:17.887Z,236.32
2023-03-29T14:39:17.949Z,243.84
2023-03-29T14:40:17.925Z,237.58
2023-03-29T14:41:17.909Z,246.78
2023-03-29T14:42:17.987Z,246.04
2023-03-29T14:43:17.992Z,250.00
2023-03-29T14:44:18.105Z,250.45
2023-03-29T14:45:18.083Z,250.80
2023-03-29T14:46:18.156Z,248.33
2023-03-29T14:47:18.150Z,239.04
2023-03-29T14:48:18.197Z,243.02
2023-03-29T14:49:18.105Z,243.10
2023-03-29T14:50:18.154Z,248.65
2023-03-29T14:51:18.147Z,257.13
2023-03-29T14:52:18.139Z,264.72
2023-03-29T14:53:18.163Z,281.00
2023-03-29T14:54:18.135Z,268.22
2023-03-29T14:55:18.122Z,252.66
2023-03-29T14:56:18.110Z,249.41
2023-03-29T14:57:18.136Z,243.88
2023-03-29T14:58:18.071Z,233.36
2023-03-29T14:59:18.043Z,242.31
2023-03-29T15:00:18.367Z,238.36
2023-03-29T15:01:18.159Z,237.93
2023-03-29T15:02:18.113Z,237.06
2023-03-29T15:03:18.177Z,240.44
2023-03-29T15:04:18.104Z,242.33
2023-03-29T15:05:18.185Z,233.42
2023-03-29T15:06:18.177Z,237.75
2023-03-29T15:07:18.233Z,233.56
2023-03-29T15:08:18.236Z,238.00
2023-03-29T15:09:18.291Z,238.28
2023-03-29T15:10:18.393Z,235.85
2023-03-29T15:11:18.376Z,237.34
2023-03-29T15:12:18.383Z,239.91
2023-03-29T15:13:18.408Z,240.74
2023-03-29T15:14:18.417Z,235.27
2023-03-29T15:15:18.482Z,236.76
2023-03-29T15:16:18.474Z,234.07
2023-03-29T15:17:18.533Z,233.83
2023-03-29T15:18:18.564Z,233.72
2023-03-29T15:19:18.587Z,234.73
2023-03-29T15:20:18.631Z,240.51
2023-03-29T15:21:18.627Z,231.98
2023-03-29T15:22:18.644Z,235.47
2023-03-29T15:23:18.736Z,241.34
2023-03-29T15:24:18.722Z,237.52
2023-03-29T15:25:18.753Z,236.90
2023-03-29T15:26:18.789Z,237.20
2023-03-29T15:27:18.773Z,240.23
2023-03-29T15:28:27.311Z,241.86
2023-03-29T15:29:18.966Z,242.12
2023-03-29T15:30:19.029Z,242.26
2023-03-29T15:31:19.155Z,238.84
2023-03-29T15:32:19.084Z,241.29
2023-03-29T15:33:19.234Z,240.27
2023-03-29T15:34:19.125Z,240.22
2023-03-29T15:35:19.191Z,237.35
2023-03-29T15:36:19.261Z,238.32
2023-03-29T15:37:19.324Z,237.87
2023-03-29T15:38:19.802Z,238.45
2023-03-29T15:39:19.351Z,240.37
2023-03-29T15:40:19.466Z,231.31
2023-03-29T15:41:19.415Z,234.97
2023-03-29T15:42:19.444Z,236.79
2023-03-29T15:43:19.449Z,235.38
2023-03-29T15:44:19.473Z,234.53
2023-03-29T15:45:19.492Z,232.39
2023-03-29T15:46:19.582Z,234.96
2023-03-29T15:47:19.523Z,236.06
2023-03-29T15:48:19.531Z,236.83
2023-03-29T15:49:19.584Z,234.47
2023-03-29T15:50:19.606Z,234.71
2023-03-29T15:51:19.640Z,236.61
2023-03-29T15:52:19.635Z,232.62
2023-03-29T15:53:19.674Z,234.13
2023-03-29T15:54:19.853Z,227.12
2023-03-29T15:55:19.949Z,228.63
2023-03-29T15:56:19.877Z,229.42
2023-03-29T15:57:19.856Z,228.44
2023-03-29T15:58:19.793Z,229.83
2023-03-29T15:59:19.763Z,229.09
2023-03-29T16:00:19.776Z,230.12
2023-03-29T16:01:19.847Z,230.36
2023-03-29T16:02:19.909Z,226.29
2023-03-29T16:03:19.921Z,227.68
2023-03-29T16:04:19.863Z,229.02
2023-03-29T16:05:19.964Z,227.90
2023-03-29T16:06:19.910Z,227.94
2023-03-29T16:07:19.903Z,229.74
2023-03-29T16:08:19.933Z,228.69
2023-03-29T16:09:19.977Z,225.67
2023-03-29T16:10:19.969Z,224.99
2023-03-29T16:11:20.094Z,224.65
2023-03-29T16:12:20.056Z,224.72
2023-03-29T16:13:20.083Z,221.61
2023-03-29T16:14:20.053Z,220.02
2023-03-29T16:15:20.141Z,221.72
2023-03-29T16:16:20.147Z,221.04
2023-03-29T16:17:20.148Z,219.67
2023-03-29T16:18:20.152Z,218.75
2023-03-29T16:19:20.145Z,218.67
2023-03-29T16:20:20.190Z,218.38
2023-03-29T16:21:20.193Z,218.99
2023-03-29T16:22:20.261Z,219.10
2023-03-29T16:23:20.209Z,218.90
2023-03-29T16:24:20.227Z,218.74
2023-03-29T16:25:20.252Z,217.61
2023-03-29T16:26:20.232Z,217.32
2023-03-29T16:27:20.272Z,218.38
2023-03-29T16:28:20.320Z,214.89
2023-03-29T16:29:20.319Z,217.65
2023-03-29T16:30:20.323Z,217.63
2023-03-29T16:31:20.425Z,218.15
2023-03-29T16:32:20.428Z,219.27
2023-03-29T16:33:20.391Z,217.64
2023-03-29T16:34:20.421Z,220.56
2023-03-29T16:35:20.443Z,219.85
2023-03-29T16:36:20.456Z,221.22
2023-03-29T16:37:20.447Z,219.08
2023-03-29T16:38:20.443Z,220.73
2023-03-29T16:39:20.490Z,219.20
2023-03-29T16:40:20.498Z,219.25
2023-03-29T16:41:20.502Z,219.83
2023-03-29T16:42:20.499Z,218.33
2023-03-29T16:43:20.527Z,218.46
2023-03-29T16:44:23.195Z,218.84
2023-03-29T16:45:20.589Z,218.45
2023-03-29T16:46:20.600Z,219.08
2023-03-29T16:47:20.521Z,218.17
2023-03-29T16:48:20.546Z,215.67
2023-03-29T16:49:20.557Z,217.35
2023-03-29T16:50:20.524Z,216.02
2023-03-29T16:51:20.469Z,213.45
2023-03-29T16:52:20.508Z,211.11
2023-03-29T16:53:20.502Z,211.66
2023-03-29T16:54:20.487Z,212.09
2023-03-29T16:55:20.485Z,212.06
2023-03-29T16:56:20.487Z,213.45
2023-03-29T16:57:20.487Z,211.49
2023-03-29T16:58:20.446Z,214.00
2023-03-29T16:59:20.439Z,212.22
2023-03-29T17:00:20.458Z,213.97
